Time;durP1;ratioP1;P1;durP2;ratioP2;P2;SDS_P1;SDS_P2;PMS_P1;PMS_P2;Temp;Humidity;BMP_temperature;BMP_pressure;BME280_temperature;BME280_humidity;BME280_pressure;Samples;Min_cycle;Max_cycle;Signal;HPM_P1;HPM_P2
2024/03/02 00:00:25;;;;;;;107.70;59.90;;;;;;;4.31;77.65;96586.64;108878;1252;102263;-78
2024/03/02 00:03:14;;;;;;;104.70;60.80;;;;;;;4.25;77.72;96582.36;108827;1253;103303;-79
2024/03/02 00:05:42;;;;;;;104.20;59.80;;;;;;;4.23;77.82;96577.33;108811;1253;99677;-78
2024/03/02 00:08:10;;;;;;;106.60;57.60;;;;;;;4.22;77.78;96578.27;108813;1252;94295;-78
2024/03/02 00:10:41;;;;;;;107.30;57.90;;;;;;;4.18;77.75;96578.34;108822;1253;94909;-78
2024/03/02 00:13:09;;;;;;;105.50;56.80;;;;;;;4.13;77.79;96580.11;108858;1253;102907;-79
2024/03/02 00:15:57;;;;;;;103.00;57.20;;;;;;;4.12;77.79;96579.72;108884;1252;102028;-78
2024/03/02 00:18:32;;;;;;;106.80;59.40;;;;;;;4.09;77.87;96574.58;108887;1252;100093;-79
2024/03/02 00:21:00;;;;;;;95.10;53.00;;;;;;;4.07;77.85;96570.27;108782;1252;94200;-79
2024/03/02 00:23:32;;;;;;;102.00;56.40;;;;;;;4.03;77.87;96569.70;108837;1252;94334;-78
2024/03/02 00:26:00;;;;;;;93.00;54.10;;;;;;;4.02;77.94;96570.87;108829;1253;102104;-78
2024/03/02 00:28:33;;;;;;;114.70;74.20;;;;;;;3.99;78.10;96568.14;108838;1253;101634;-78
2024/03/02 00:31:14;;;;;;;98.70;57.10;;;;;;;3.97;78.16;96568.02;108859;1253;100022;-78
2024/03/02 00:33:46;;;;;;;104.20;57.20;;;;;;;3.96;78.27;96570.67;108831;1252;94211;-78
2024/03/02 00:36:24;;;;;;;101.10;57.90;;;;;;;3.95;78.43;96574.16;108872;1253;94339;-79
2024/03/02 00:38:54;;;;;;;105.30;55.90;;;;;;;3.97;78.52;96576.17;108788;1252;102477;-79
2024/03/02 00:41:32;;;;;;;102.00;57.00;;;;;;;3.97;78.50;96574.46;108855;1253;101417;-78
2024/03/02 00:44:13;;;;;;;103.10;55.90;;;;;;;3.93;78.48;96571.24;108852;1252;100157;-78
2024/03/02 00:46:43;;;;;;;99.20;57.80;;;;;;;3.88;78.49;96572.30;108763;1252;94375;-77
2024/03/02 00:49:20;;;;;;;102.80;55.40;;;;;;;3.86;78.61;96579.80;108789;1253;94592;-78
2024/03/02 00:51:50;;;;;;;106.30;59.80;;;;;;;3.83;78.64;96576.12;108780;1252;102495;-78
2024/03/02 00:54:26;;;;;;;97.30;56.10;;;;;;;3.82;78.66;96574.83;108860;1251;101457;-78
2024/03/02 00:56:55;;;;;;;97.20;55.90;;;;;;;3.80;78.67;96571.40;108845;1252;100233;-78
2024/03/02 00:59:26;;;;;;;106.30;57.20;;;;;;;3.80;78.80;96566.47;108763;1252;94725;-78
2024/03/02 01:01:54;;;;;;;85.20;50.50;;;;;;;3.79;78.75;96564.48;108815;1252;94322;-78
2024/03/02 01:04:21;;;;;;;81.80;50.50;;;;;;;3.77;78.78;96562.57;108772;1253;100979;-78
2024/03/02 01:06:49;;;;;;;89.30;52.30;;;;;;;3.76;78.83;96559.52;108825;1253;101631;-78
2024/03/02 01:09:17;;;;;;;82.90;49.70;;;;;;;3.75;78.83;96559.84;108796;1251;100219;-78
2024/03/02 01:11:45;;;;;;;83.00;49.40;;;;;;;3.72;78.98;96559.79;108773;1253;95029;-78
2024/03/02 01:14:13;;;;;;;82.80;51.70;;;;;;;3.71;78.98;96558.14;108822;1252;94458;-78
2024/03/02 01:16:40;;;;;;;82.40;50.60;;;;;;;3.71;79.00;96553.89;108877;1252;102544;-78
2024/03/02 01:19:09;;;;;;;86.00;49.00;;;;;;;3.71;79.03;96554.73;108848;1251;100335;-78
2024/03/02 01:21:37;;;;;;;86.90;54.00;;;;;;;3.69;78.97;96560.65;108774;1252;98384;-78
2024/03/02 01:24:05;;;;;;;98.20;56.00;;;;;;;3.66;78.93;96558.23;108807;1252;94163;-78
2024/03/02 01:26:33;;;;;;;89.80;53.70;;;;;;;3.65;78.98;96559.45;108810;1252;94530;-78
2024/03/02 01:29:00;;;;;;;91.90;54.90;;;;;;;3.62;78.92;96561.68;108857;1252;102340;-78
2024/03/02 01:31:28;;;;;;;93.80;54.10;;;;;;;3.61;78.93;96557.25;108865;1252;101739;-78
2024/03/02 01:33:56;;;;;;;89.70;51.50;;;;;;;3.59;79.05;96553.77;108854;1253;100110;-78
2024/03/02 01:36:23;;;;;;;83.20;47.00;;;;;;;3.56;79.08;96546.83;108822;1252;94221;-78
2024/03/02 01:38:51;;;;;;;82.70;44.70;;;;;;;3.56;79.18;96545.03;108886;1254;94545;-78
2024/03/02 01:41:19;;;;;;;77.50;44.80;;;;;;;3.56;79.17;96549.83;108831;1252;102314;-78
2024/03/02 01:43:46;;;;;;;74.50;44.60;;;;;;;3.57;79.28;96555.39;108849;1253;101658;-78
2024/03/02 01:46:14;;;;;;;73.20;43.90;;;;;;;3.56;79.35;96549.16;108845;1252;99055;-77
2024/03/02 01:48:42;;;;;;;78.20;44.70;;;;;;;3.54;79.32;96544.25;108802;1253;94203;-76
2024/03/02 01:51:10;;;;;;;74.40;44.80;;;;;;;3.53;79.26;96542.92;108825;1252;94250;-77
2024/03/02 01:53:38;;;;;;;80.60;44.00;;;;;;;3.53;79.30;96541.46;108854;1252;102527;-76
2024/03/02 01:56:06;;;;;;;95.50;50.60;;;;;;;3.53;79.45;96538.14;108831;1253;100873;-76
2024/03/02 01:58:34;;;;;;;95.60;53.40;;;;;;;3.51;79.42;96535.39;108771;1252;99946;-76
2024/03/02 02:01:01;;;;;;;89.80;50.50;;;;;;;3.50;79.46;96540.08;108764;1252;94295;-76
2024/03/02 02:03:29;;;;;;;81.80;46.70;;;;;;;3.50;79.50;96539.21;108815;1253;94499;-76
2024/03/02 02:05:57;;;;;;;71.10;43.50;;;;;;;3.47;79.32;96536.10;108833;1253;109744;-76
2024/03/02 02:08:24;;;;;;;73.40;42.40;;;;;;;3.40;79.15;96537.33;108839;1252;101563;-76
2024/03/02 02:10:52;;;;;;;73.20;42.30;;;;;;;3.34;79.26;96534.27;108833;1253;100242;-76
2024/03/02 02:13:20;;;;;;;72.60;43.70;;;;;;;3.31;79.26;96536.93;108816;1253;94824;-76
2024/03/02 02:15:48;;;;;;;75.30;43.40;;;;;;;3.30;79.26;96535.40;108847;1253;94481;-76
2024/03/02 02:18:15;;;;;;;68.30;40.80;;;;;;;3.26;79.28;96537.86;108834;1252;102330;-77
2024/03/02 02:20:43;;;;;;;70.40;40.80;;;;;;;3.23;79.29;96537.88;108883;1253;101626;-76
2024/03/02 02:23:12;;;;;;;74.40;42.90;;;;;;;3.20;79.23;96533.58;108829;1252;100158;-76
2024/03/02 02:25:40;;;;;;;66.20;40.60;;;;;;;3.19;79.37;96533.92;108822;1253;94263;-76
2024/03/02 02:28:08;;;;;;;72.20;43.30;;;;;;;3.18;79.39;96530.17;108765;1252;94544;-76
2024/03/02 02:30:35;;;;;;;79.00;43.50;;;;;;;3.16;79.38;96523.58;108804;1253;102379;-76
2024/03/02 02:33:03;;;;;;;72.20;41.20;;;;;;;3.13;79.38;96518.14;108857;1253;101608;-76
2024/03/02 02:35:31;;;;;;;63.30;38.90;;;;;;;3.10;79.46;96516.05;108888;1253;100103;-76
2024/03/02 02:37:59;;;;;;;64.30;39.20;;;;;;;3.09;79.59;96517.23;108822;1253;94190;-76
2024/03/02 02:40:29;;;;;;;59.20;39.00;;;;;;;3.09;79.71;96518.66;108814;1252;94367;-76
2024/03/02 02:43:00;;;;;;;64.70;40.60;;;;;;;3.08;79.67;96521.27;108842;1252;101264;-76
2024/03/02 02:45:28;;;;;;;68.50;40.80;;;;;;;3.09;79.76;96519.23;108879;1253;101378;-76
2024/03/02 02:47:55;;;;;;;64.80;36.00;;;;;;;3.08;79.72;96520.73;108852;1253;100088;-76
2024/03/02 02:50:23;;;;;;;55.90;34.30;;;;;;;3.07;79.66;96519.58;108862;1252;94506;-76
2024/03/02 02:52:51;;;;;;;54.30;33.50;;;;;;;3.08;79.79;96512.40;108827;1252;94469;-76
2024/03/02 02:55:18;;;;;;;51.20;32.40;;;;;;;3.08;79.76;96510.60;108865;1252;102634;-76
2024/03/02 02:57:46;;;;;;;53.50;32.40;;;;;;;3.08;79.78;96512.86;108848;1252;101408;-76
2024/03/02 03:00:17;;;;;;;54.20;32.40;;;;;;;3.07;79.79;96523.19;108805;1254;100021;-75
2024/03/02 03:02:49;;;;;;;52.60;32.50;;;;;;;3.06;79.70;96527.59;108799;1252;94387;-75
2024/03/02 03:05:17;;;;;;;50.30;32.80;;;;;;;3.06;79.77;96526.90;108848;1252;94309;-76
2024/03/02 03:07:45;;;;;;;53.10;31.80;;;;;;;3.03;79.73;96520.25;108824;1252;101263;-76
2024/03/02 03:10:12;;;;;;;53.90;33.80;;;;;;;3.01;79.87;96523.08;108887;1252;101516;-76
2024/03/02 03:12:42;;;;;;;55.40;33.50;;;;;;;2.97;79.89;96523.48;108862;1253;100421;-76
2024/03/02 03:15:11;;;;;;;53.40;32.90;;;;;;;2.95;79.94;96521.63;108788;1253;94214;-76
2024/03/02 03:17:39;;;;;;;51.10;33.80;;;;;;;2.90;80.03;96518.25;108903;1252;94233;-76
2024/03/02 03:20:09;;;;;;;56.50;34.30;;;;;;;2.88;80.12;96512.27;108875;1252;102314;-76
2024/03/02 03:22:38;;;;;;;56.10;33.60;;;;;;;2.88;80.24;96514.96;108841;1252;101579;-76
2024/03/02 03:25:07;;;;;;;52.10;31.80;;;;;;;2.88;80.23;96515.16;108862;1251;100199;-77
2024/03/02 03:27:35;;;;;;;52.30;33.90;;;;;;;2.89;80.23;96510.24;108812;1253;94203;-76
2024/03/02 03:30:03;;;;;;;54.60;33.10;;;;;;;2.91;80.28;96511.27;108898;1253;94498;-77
2024/03/02 03:32:31;;;;;;;60.60;35.60;;;;;;;2.88;80.37;96517.33;108825;1252;102067;-76
2024/03/02 03:34:59;;;;;;;61.50;34.80;;;;;;;2.86;80.48;96512.55;108843;1252;101583;-76
2024/03/02 03:37:32;;;;;;;65.90;35.20;;;;;;;2.88;80.60;96514.13;108777;1252;100077;-77
2024/03/02 03:40:01;;;;;;;61.50;38.30;;;;;;;2.91;80.73;96517.31;108853;1252;94240;-76
2024/03/02 03:42:28;;;;;;;65.70;40.80;;;;;;;2.94;80.78;96511.11;108894;1252;94569;-76
2024/03/02 03:44:56;;;;;;;82.00;50.50;;;;;;;2.93;80.79;96499.45;108814;1253;102411;-76
2024/03/02 03:47:24;;;;;;;80.00;48.90;;;;;;;2.93;80.93;96496.96;108857;1252;101556;-76
2024/03/02 03:49:52;;;;;;;78.80;50.40;;;;;;;2.94;81.02;96504.48;108844;1256;100143;-76
2024/03/02 03:52:20;;;;;;;79.30;50.70;;;;;;;2.95;81.06;96500.91;108740;1253;94620;-76
2024/03/02 03:54:48;;;;;;;82.40;50.00;;;;;;;2.94;81.20;96503.94;108820;1254;95669;-76
2024/03/02 03:57:16;;;;;;;77.50;47.70;;;;;;;2.94;81.17;96505.41;108912;1252;102259;-76
2024/03/02 03:59:44;;;;;;;71.30;45.20;;;;;;;2.93;81.19;96508.20;108899;1253;101140;-76
2024/03/02 04:02:12;;;;;;;73.90;45.50;;;;;;;2.95;81.33;96507.56;108808;1253;99314;-77
2024/03/02 04:04:40;;;;;;;67.70;42.40;;;;;;;2.99;81.34;96509.10;108828;1252;94261;-76
2024/03/02 04:07:08;;;;;;;66.40;43.20;;;;;;;2.97;81.21;96511.95;108831;1252;94480;-76
2024/03/02 04:09:35;;;;;;;70.20;43.60;;;;;;;2.97;81.11;96513.61;108868;1252;102342;-76
2024/03/02 04:12:03;;;;;;;70.20;45.30;;;;;;;2.99;81.30;96511.56;108821;1253;100225;-76
2024/03/02 04:14:31;;;;;;;66.70;39.20;;;;;;;3.02;81.34;96510.23;108786;1254;99824;-76
2024/03/02 04:16:58;;;;;;;57.60;35.60;;;;;;;3.02;81.20;96504.45;108865;1252;94271;-76
2024/03/02 04:19:26;;;;;;;54.90;33.70;;;;;;;2.97;81.11;96502.42;108826;1252;94538;-76
2024/03/02 04:21:54;;;;;;;53.90;33.00;;;;;;;2.93;81.11;96507.25;108807;1252;101240;-76
2024/03/02 04:24:21;;;;;;;59.30;35.90;;;;;;;2.89;81.13;96512.50;108858;1253;101342;-76
2024/03/02 04:26:49;;;;;;;65.20;37.30;;;;;;;2.88;81.25;96506.87;108833;1253;100094;-76
2024/03/02 04:29:17;;;;;;;59.30;36.10;;;;;;;2.88;81.28;96504.63;108838;1253;95024;-76
2024/03/02 04:31:46;;;;;;;55.80;35.00;;;;;;;2.91;81.35;96497.78;108824;1252;94706;-76
2024/03/02 04:34:13;;;;;;;63.30;36.30;;;;;;;2.92;81.44;96499.36;108847;1252;102389;-76
2024/03/02 04:36:41;;;;;;;56.30;33.80;;;;;;;2.93;81.52;96500.77;108838;1252;101537;-76
2024/03/02 04:39:10;;;;;;;56.60;33.80;;;;;;;2.94;81.50;96510.55;108831;1252;100234;-76
2024/03/02 04:41:38;;;;;;;58.40;35.10;;;;;;;2.99;81.53;96516.54;108778;1252;94369;-76
2024/03/02 04:44:07;;;;;;;54.90;34.30;;;;;;;3.03;81.57;96516.33;108846;1252;94425;-76
2024/03/02 04:46:35;;;;;;;54.90;32.70;;;;;;;3.02;81.45;96513.95;108869;1253;102871;-76
2024/03/02 04:49:03;;;;;;;55.50;33.40;;;;;;;2.98;81.27;96519.70;108863;1252;101567;-76
2024/03/02 04:51:31;;;;;;;57.60;33.40;;;;;;;2.92;81.27;96520.40;108765;1253;100051;-76
2024/03/02 04:53:58;;;;;;;54.00;35.00;;;;;;;2.86;81.36;96520.01;108772;1254;95221;-76
2024/03/02 04:56:44;;;;;;;56.80;35.30;;;;;;;2.86;81.58;96522.88;108844;1254;94532;-75
2024/03/02 04:59:12;;;;;;;57.30;35.30;;;;;;;2.86;81.47;96524.44;108878;1252;102349;-77
2024/03/02 05:01:40;;;;;;;55.90;34.50;;;;;;;2.85;81.51;96522.78;108820;1252;101227;-76
2024/03/02 05:04:07;;;;;;;52.90;32.90;;;;;;;2.85;81.46;96523.73;108819;1252;99876;-76
2024/03/02 05:06:35;;;;;;;49.70;32.40;;;;;;;2.85;81.36;96525.52;108766;1253;94224;-76
2024/03/02 05:09:03;;;;;;;48.60;31.10;;;;;;;2.84;81.32;96527.97;108829;1252;94574;-76
2024/03/02 05:11:53;;;;;;;50.20;29.60;;;;;;;2.83;81.39;96525.04;108870;1252;103447;-76
2024/03/02 05:14:20;;;;;;;51.40;32.70;;;;;;;2.82;81.44;96524.05;108823;1252;101589;-76
2024/03/02 05:16:48;;;;;;;51.50;31.40;;;;;;;2.80;81.34;96526.80;108802;1252;99921;-76
2024/03/02 05:19:15;;;;;;;54.50;33.30;;;;;;;2.80;81.47;96528.96;108812;1252;94222;-77
2024/03/02 05:21:43;;;;;;;54.70;33.30;;;;;;;2.82;81.64;96530.35;108846;1253;94549;-76
2024/03/02 05:24:11;;;;;;;50.00;30.30;;;;;;;2.84;81.76;96528.49;108891;1253;102120;-76
2024/03/02 05:26:39;;;;;;;59.60;37.10;;;;;;;2.86;81.67;96530.75;108852;1252;100191;-76
2024/03/02 05:29:07;;;;;;;59.60;33.90;;;;;;;2.86;81.78;96530.95;108846;1253;100264;-76
2024/03/02 05:31:34;;;;;;;48.80;31.70;;;;;;;2.85;81.77;96529.35;108830;1253;95240;-76
2024/03/02 05:34:02;;;;;;;47.20;31.10;;;;;;;2.83;81.64;96526.98;108890;1252;94561;-77
2024/03/02 05:36:30;;;;;;;54.60;32.80;;;;;;;2.80;81.68;96521.50;108875;1252;102367;-76
2024/03/02 05:38:57;;;;;;;58.40;34.70;;;;;;;2.82;81.81;96520.18;108799;1252;101672;-76
2024/03/02 05:41:25;;;;;;;56.00;33.60;;;;;;;2.87;81.89;96526.70;108806;1252;99884;-76
2024/03/02 05:43:53;;;;;;;52.00;34.10;;;;;;;2.92;81.89;96532.96;108804;1253;94271;-76
2024/03/02 05:46:20;;;;;;;60.30;34.10;;;;;;;2.93;81.91;96537.64;108771;1252;94411;-77
2024/03/02 05:48:48;;;;;;;56.20;32.90;;;;;;;2.89;81.92;96541.70;108811;1252;102169;-77
2024/03/02 05:51:16;;;;;;;51.30;32.90;;;;;;;2.86;81.97;96551.67;108812;1252;101122;-76
2024/03/02 05:53:43;;;;;;;49.60;32.60;;;;;;;2.84;81.96;96556.34;108802;1252;98544;-76
2024/03/02 05:56:12;;;;;;;57.40;33.80;;;;;;;2.86;82.15;96557.73;108726;1253;94592;-75
2024/03/02 05:58:53;;;;;;;51.90;34.20;;;;;;;2.88;82.17;96557.98;108882;1253;94380;-77
2024/03/02 06:01:22;;;;;;;53.40;33.30;;;;;;;2.90;82.22;96561.09;108821;1254;102503;-77
2024/03/02 06:03:50;;;;;;;47.80;33.50;;;;;;;2.93;82.26;96561.30;108847;1253;101684;-76
2024/03/02 06:06:17;;;;;;;46.60;31.00;;;;;;;2.98;82.32;96564.13;108843;1252;100119;-76
2024/03/02 06:08:45;;;;;;;49.30;32.20;;;;;;;3.00;82.28;96564.94;108853;1253;94230;-76
2024/03/02 06:11:13;;;;;;;55.60;34.40;;;;;;;3.01;82.31;96564.79;108909;1252;94602;-76
2024/03/02 06:13:40;;;;;;;53.60;34.20;;;;;;;3.04;82.39;96564.60;108823;1253;102631;-76
2024/03/02 06:16:08;;;;;;;56.00;36.00;;;;;;;3.06;82.53;96566.15;108758;1252;101521;-76
2024/03/02 06:18:36;;;;;;;61.70;38.00;;;;;;;3.07;82.67;96566.62;108782;1255;99980;-76
2024/03/02 06:21:04;;;;;;;53.50;38.70;;;;;;;3.10;82.68;96566.55;108816;1251;94222;-75
2024/03/02 06:23:32;;;;;;;62.50;37.70;;;;;;;3.15;82.72;96564.31;108808;1253;94679;-76
2024/03/02 06:25:59;;;;;;;62.60;38.90;;;;;;;3.19;82.80;96565.10;108834;1252;102491;-76
2024/03/02 06:28:27;;;;;;;66.60;42.50;;;;;;;3.23;82.84;96572.59;108886;1253;100381;-76
2024/03/02 06:30:55;;;;;;;71.80;45.70;;;;;;;3.26;82.81;96575.73;108847;1252;100613;-76
2024/03/02 06:33:22;;;;;;;66.30;43.30;;;;;;;3.31;82.88;96576.11;108838;1253;94257;-76
2024/03/02 06:35:50;;;;;;;66.80;43.50;;;;;;;3.35;82.96;96574.71;108873;1253;94475;-76
2024/03/02 06:38:18;;;;;;;68.40;43.00;;;;;;;3.40;83.06;96574.55;108800;1252;102143;-76
2024/03/02 06:40:46;;;;;;;64.90;41.10;;;;;;;3.44;83.11;96576.73;108838;1253;101404;-76
2024/03/02 06:43:13;;;;;;;59.40;40.60;;;;;;;3.49;83.23;96578.69;108807;1252;100143;-76
2024/03/02 06:45:41;;;;;;;66.10;39.80;;;;;;;3.54;83.33;96578.50;108816;1252;94272;-76
2024/03/02 06:48:09;;;;;;;67.70;41.20;;;;;;;3.60;83.26;96578.49;108814;1252;94503;-77
2024/03/02 06:50:36;;;;;;;64.50;40.70;;;;;;;3.66;83.30;96579.24;108853;1256;102391;-77
2024/03/02 06:53:04;;;;;;;62.30;39.90;;;;;;;3.69;83.35;96577.94;108824;1254;101585;-77
2024/03/02 06:55:32;;;;;;;61.20;39.90;;;;;;;3.75;83.36;96576.39;108821;1253;100160;-77
2024/03/02 06:58:00;;;;;;;61.90;41.20;;;;;;;3.79;83.42;96573.39;108748;1253;94263;-76
2024/03/02 07:00:27;;;;;;;64.40;41.70;;;;;;;3.84;83.56;96577.12;108854;1253;94541;-76
2024/03/02 07:02:55;;;;;;;72.60;44.50;;;;;;;3.91;83.66;96579.28;108832;1254;102495;-76
2024/03/02 07:05:23;;;;;;;74.80;43.80;;;;;;;3.98;83.74;96578.94;108848;1252;101573;-76
2024/03/02 07:07:50;;;;;;;77.20;45.20;;;;;;;4.07;83.75;96575.45;108823;1252;99849;-77
2024/03/02 07:10:18;;;;;;;76.10;45.10;;;;;;;4.15;83.79;96576.55;108881;1253;94309;-76
2024/03/02 07:12:46;;;;;;;69.30;43.90;;;;;;;4.22;83.82;96578.34;108783;1253;94647;-77
2024/03/02 07:15:29;;;;;;;70.00;44.90;;;;;;;4.27;83.94;96581.02;108878;1254;102669;-76
2024/03/02 07:17:57;;;;;;;74.10;45.60;;;;;;;4.31;83.93;96583.57;108804;1253;101973;-77
2024/03/02 07:20:25;;;;;;;70.50;44.10;;;;;;;4.36;83.95;96584.67;108807;1252;100027;-76
2024/03/02 07:22:53;;;;;;;64.40;41.60;;;;;;;4.42;84.11;96581.98;108811;1253;94306;-76
2024/03/02 07:25:20;;;;;;;60.10;40.70;;;;;;;4.49;84.22;96587.30;108861;1254;94503;-76
2024/03/02 07:27:48;;;;;;;65.30;41.00;;;;;;;4.58;84.14;96593.70;108794;1252;102446;-77
2024/03/02 07:30:17;;;;;;;66.60;41.70;;;;;;;4.64;84.12;96596.05;108798;1253;101508;-76
2024/03/02 07:32:45;;;;;;;67.00;42.20;;;;;;;4.71;84.09;96595.45;108770;1252;100526;-77
2024/03/02 07:35:14;;;;;;;68.10;41.00;;;;;;;4.79;84.20;96595.55;108798;1252;94225;-77
2024/03/02 07:37:45;;;;;;;64.10;41.30;;;;;;;4.87;84.25;96598.60;108824;1254;95016;-77
2024/03/02 07:40:13;;;;;;;64.20;41.00;;;;;;;4.94;84.28;96600.52;108833;1256;102239;-76
2024/03/02 07:42:41;;;;;;;72.70;41.80;;;;;;;5.00;84.17;96595.94;108860;1254;101578;-76
2024/03/02 07:45:09;;;;;;;71.10;42.50;;;;;;;5.08;84.14;96593.51;108832;1253;100052;-76
2024/03/02 07:47:38;;;;;;;66.20;43.40;;;;;;;5.15;84.15;96594.59;108770;1253;94654;-76
2024/03/02 07:50:07;;;;;;;70.20;42.80;;;;;;;5.21;84.05;96592.23;108795;1253;94436;-77
2024/03/02 07:52:34;;;;;;;78.60;45.70;;;;;;;5.26;84.08;96591.69;108802;1253;102112;-77
2024/03/02 07:55:02;;;;;;;78.30;46.90;;;;;;;5.33;84.06;96593.33;108760;1253;101300;-76
2024/03/02 07:57:30;;;;;;;78.10;45.10;;;;;;;5.39;84.12;96594.64;108780;1252;100124;-76
2024/03/02 07:59:59;;;;;;;70.50;43.80;;;;;;;5.44;84.16;96593.05;108834;1254;95080;-76
2024/03/02 08:02:27;;;;;;;62.50;38.90;;;;;;;5.51;84.06;96590.86;108825;1254;94404;-76
2024/03/02 08:04:54;;;;;;;68.00;39.60;;;;;;;5.55;83.97;96588.70;108809;1253;102100;-76
2024/03/02 08:07:22;;;;;;;70.70;42.40;;;;;;;5.60;84.04;96591.63;108835;1253;101818;-76
2024/03/02 08:09:50;;;;;;;63.50;42.80;;;;;;;5.66;84.04;96593.60;108804;1253;100111;-76
2024/03/02 08:12:19;;;;;;;72.50;45.80;;;;;;;5.74;84.14;96598.79;108790;1253;94205;-76
2024/03/02 08:14:47;;;;;;;72.50;44.00;;;;;;;5.83;84.08;96604.98;108758;1253;94565;-76
2024/03/02 08:17:14;;;;;;;67.10;44.80;;;;;;;5.89;83.95;96606.86;108811;1252;102446;-76
2024/03/02 08:19:42;;;;;;;80.60;48.40;;;;;;;5.95;83.99;96608.59;108857;1253;101840;-76
2024/03/02 08:22:10;;;;;;;74.80;51.30;;;;;;;6.00;84.06;96610.36;108868;1253;100147;-79
2024/03/02 08:24:37;;;;;;;76.10;50.00;;;;;;;6.06;84.10;96615.14;108808;1252;94171;-77
2024/03/02 08:27:05;;;;;;;75.40;49.00;;;;;;;6.10;84.12;96618.66;108856;1252;94478;-76
2024/03/02 08:29:33;;;;;;;80.60;48.70;;;;;;;6.15;84.17;96617.23;108841;1253;102181;-76
2024/03/02 08:32:01;;;;;;;72.30;46.70;;;;;;;6.19;84.11;96618.22;108837;1252;101322;-77
2024/03/02 08:34:28;;;;;;;76.20;44.90;;;;;;;6.22;83.77;96620.00;108820;1256;100193;-78
2024/03/02 08:36:56;;;;;;;73.90;44.10;;;;;;;6.24;83.75;96619.68;108830;1253;94316;-77
2024/03/02 08:39:24;;;;;;;67.20;43.30;;;;;;;6.28;83.61;96619.19;108874;1253;94677;-79
2024/03/02 08:41:51;;;;;;;69.70;45.10;;;;;;;6.33;83.76;96618.73;108784;1254;102424;-77
2024/03/02 08:44:19;;;;;;;69.40;43.80;;;;;;;6.37;83.70;96613.93;108797;1254;101769;-79
2024/03/02 08:46:47;;;;;;;71.70;43.20;;;;;;;6.40;83.59;96611.02;108815;1253;100043;-77
2024/03/02 08:49:15;;;;;;;68.60;42.50;;;;;;;6.44;83.56;96611.13;108757;1253;94380;-78
2024/03/02 08:51:43;;;;;;;66.20;41.50;;;;;;;6.48;83.77;96614.36;108816;1253;94631;-80
2024/03/02 08:54:10;;;;;;;64.20;41.50;;;;;;;6.51;83.77;96613.58;108798;1254;102072;-77
2024/03/02 08:56:38;;;;;;;63.80;41.90;;;;;;;6.55;83.68;96614.98;108834;1254;101570;-77
2024/03/02 08:59:06;;;;;;;73.10;43.00;;;;;;;6.61;83.71;96615.36;108716;1254;99982;-76
2024/03/02 09:01:33;;;;;;;73.50;47.70;;;;;;;6.66;83.67;96613.38;108705;1254;94284;-76
2024/03/02 09:04:01;;;;;;;74.70;45.10;;;;;;;6.70;83.48;96619.06;108700;1254;94725;-78
2024/03/02 09:06:29;;;;;;;69.60;45.80;;;;;;;6.74;83.46;96615.98;108669;1253;102508;-79
2024/03/02 09:08:56;;;;;;;78.20;49.10;;;;;;;6.80;83.55;96615.48;108734;1254;101888;-77
2024/03/02 09:11:24;;;;;;;79.90;49.00;;;;;;;6.88;83.47;96618.98;108725;1254;99654;-77
2024/03/02 09:13:52;;;;;;;77.50;48.40;;;;;;;6.95;83.53;96618.98;108695;1254;94228;-77
2024/03/02 09:16:20;;;;;;;83.20;50.20;;;;;;;7.02;83.45;96618.18;108789;1254;94204;-77
2024/03/02 09:18:48;;;;;;;74.10;47.70;;;;;;;7.08;83.63;96624.14;108811;1251;102445;-77
2024/03/02 09:21:16;;;;;;;78.00;46.60;;;;;;;7.16;83.70;96625.69;108856;1252;101620;-77
2024/03/02 09:23:45;;;;;;;72.80;45.30;;;;;;;7.24;83.64;96627.45;108783;1254;99228;-77
2024/03/02 09:26:14;;;;;;;75.00;44.30;;;;;;;7.33;83.62;96627.27;108804;1255;94608;-77
2024/03/02 09:28:45;;;;;;;85.50;45.40;;;;;;;7.40;83.39;96629.70;108836;1255;94505;-77
2024/03/02 09:31:12;;;;;;;74.40;46.10;;;;;;;7.46;83.42;96632.40;108787;1253;102155;-77
2024/03/02 09:33:40;;;;;;;76.60;45.50;;;;;;;7.52;83.40;96631.22;108812;1253;101667;-77
2024/03/02 09:36:22;;;;;;;77.50;48.20;;;;;;;7.60;83.43;96631.41;108795;1254;100234;-77
2024/03/02 09:38:49;;;;;;;84.30;51.40;;;;;;;7.70;83.44;96629.58;108856;1253;94193;-77
2024/03/02 09:41:17;;;;;;;80.60;49.60;;;;;;;7.78;83.47;96632.84;108815;1253;94515;-77
2024/03/02 09:43:45;;;;;;;85.50;54.30;;;;;;;7.86;83.43;96634.45;108851;1253;102152;-77
2024/03/02 09:46:13;;;;;;;90.70;56.00;;;;;;;7.93;83.34;96636.09;108797;1252;100389;-77
2024/03/02 09:48:40;;;;;;;88.50;55.50;;;;;;;7.99;83.19;96628.12;108754;1253;99037;-77
2024/03/02 09:51:09;;;;;;;79.30;52.20;;;;;;;8.02;83.06;96633.64;108788;1254;94174;-77
2024/03/02 09:53:38;;;;;;;85.40;53.40;;;;;;;8.02;83.15;96635.84;108839;1254;94478;-79
2024/03/02 09:56:05;;;;;;;81.10;51.70;;;;;;;8.04;83.18;96637.08;108748;1254;102519;-79
2024/03/02 09:58:33;;;;;;;83.70;52.50;;;;;;;8.09;83.07;96636.50;108854;1254;101292;-77
2024/03/02 10:01:01;;;;;;;82.00;53.80;;;;;;;8.15;82.97;96636.23;108746;1254;99969;-79
2024/03/02 10:03:32;;;;;;;83.50;52.10;;;;;;;8.20;82.92;96636.67;108641;1253;173568;-79
2024/03/02 10:06:26;;;;;;;78.50;51.00;;;;;;;8.22;82.85;96637.39;108775;1253;95151;-80
2024/03/02 10:08:55;;;;;;;77.90;51.30;;;;;;;8.23;82.79;96638.00;108804;1253;101871;-80
2024/03/02 10:11:30;;;;;;;79.80;50.00;;;;;;;8.25;82.90;96637.30;108878;1253;101652;-81
2024/03/02 10:14:12;;;;;;;81.20;48.60;;;;;;;8.27;82.90;96633.10;108794;1254;100099;-80
2024/03/02 10:16:42;;;;;;;72.80;46.70;;;;;;;8.31;83.02;96631.73;108855;1253;94228;-82
2024/03/02 10:19:17;;;;;;;62.80;41.90;;;;;;;8.31;82.99;96627.61;108824;1254;94564;-80
2024/03/02 10:21:49;;;;;;;66.60;43.30;;;;;;;8.32;82.90;96627.81;108756;1253;102419;-80
2024/03/02 10:24:18;;;;;;;63.80;42.40;;;;;;;8.36;82.73;96627.13;108813;1253;101582;-80
2024/03/02 10:26:46;;;;;;;64.50;42.30;;;;;;;8.42;82.78;96627.39;108836;1253;98955;-80
2024/03/02 10:29:14;;;;;;;76.30;45.90;;;;;;;8.45;82.73;96629.80;108783;1253;94217;-80
2024/03/02 10:31:46;;;;;;;73.20;47.40;;;;;;;8.48;82.84;96628.83;108813;1254;95316;-80
2024/03/02 10:34:15;;;;;;;;;;;;;;;8.51;82.74;96631.42;108758;1253;102502;-80
2024/03/02 10:36:45;;;;;;;75.50;46.50;;;;;;;8.51;82.65;96628.65;108713;1253;101645;-80
2024/03/02 10:39:14;;;;;;;71.10;48.90;;;;;;;8.55;82.50;96625.86;108753;1252;106994;-80
2024/03/02 10:41:42;;;;;;;69.50;48.30;;;;;;;8.58;82.40;96625.41;108754;1253;94343;-77
2024/03/02 10:44:10;;;;;;;69.60;48.30;;;;;;;8.59;82.26;96624.81;108852;1253;95968;-77
2024/03/02 10:46:39;;;;;;;77.00;50.90;;;;;;;8.57;82.27;96629.17;108756;1252;102215;-78
2024/03/02 10:49:07;;;;;;;78.20;48.80;;;;;;;8.58;82.44;96627.51;108748;1254;101660;-78
2024/03/02 10:51:36;;;;;;;72.60;47.30;;;;;;;8.61;82.13;96627.04;108792;1253;99993;-78
2024/03/02 10:54:06;;;;;;;71.70;47.80;;;;;;;8.64;82.13;96626.11;108737;1253;95721;-77
2024/03/02 10:56:41;;;;;;;70.80;46.70;;;;;;;8.68;82.16;96621.67;108799;1252;94597;-80
2024/03/02 10:59:27;;;;;;;73.10;45.30;;;;;;;8.69;82.11;96619.82;108837;1254;102514;-80
2024/03/02 11:01:58;;;;;;;70.30;46.10;;;;;;;8.71;82.04;96619.17;108831;1253;102508;-80
2024/03/02 11:04:27;;;;;;;66.80;41.30;;;;;;;8.74;81.88;96616.48;108769;1254;99953;-80
2024/03/02 11:07:05;;;;;;;68.30;45.00;;;;;;;8.76;81.90;96617.50;108798;1254;94556;-80
2024/03/02 11:09:39;;;;;;;104.60;64.60;;;;;;;8.80;81.94;96615.02;108853;1255;95239;-80
2024/03/02 11:12:12;;;;;;;74.30;47.70;;;;;;;8.85;81.91;96613.70;108832;1252;102350;-80
2024/03/02 11:14:44;;;;;;;68.20;45.20;;;;;;;8.91;81.72;96612.38;108850;1254;101694;-80
2024/03/02 11:17:15;;;;;;;72.80;45.70;;;;;;;8.97;81.82;96610.15;108845;1252;99012;-80
2024/03/02 11:19:44;;;;;;;72.60;46.30;;;;;;;9.03;81.77;96609.01;108796;1254;94384;-80